Time;durP1;ratioP1;P1;durP2;ratioP2;P2;SDS_P1;SDS_P2;PMS_P1;PMS_P2;Temp;Humidity;BMP_temperature;BMP_pressure;BME280_temperature;BME280_humidity;BME280_pressure;Samples;Min_cycle;Max_cycle;Signal;HPM_P1;HPM_P2
2022/06/14 00:00:53;;;;;;;;;;;9.70;99.90;;;;;;5033962;28;19909;-74
2022/06/14 00:02:27;;;;;;;;;;;9.70;99.90;;;;;;5034137;28;20303;-72
2022/06/14 00:04:54;;;;;;;;;;;9.80;99.90;;;;;;5034060;28;19913;-73
2022/06/14 00:07:20;;;;;;;;;;;9.80;99.90;;;;;;5033873;28;20008;-73
2022/06/14 00:09:47;;;;;;;;;;;9.90;99.90;;;;;;5033555;28;19913;-73
2022/06/14 00:12:14;;;;;;;;;;;10.00;99.90;;;;;;5033965;28;20352;-74
2022/06/14 00:14:41;;;;;;;;;;;10.00;99.90;;;;;;5033854;28;19996;-74
2022/06/14 00:17:07;;;;;;;;;;;10.10;99.90;;;;;;5033489;28;19992;-74
2022/06/14 00:19:34;;;;;;;;;;;10.10;99.90;;;;;;5033408;28;20510;-75
2022/06/14 00:22:02;;;;;;;;;;;10.20;99.90;;;;;;5033476;28;19909;-74
2022/06/14 00:24:31;;;;;;;;;;;10.20;99.90;;;;;;5033417;28;19948;-74
2022/06/14 00:26:58;;;;;;;;;;;10.30;99.90;;;;;;5033459;28;19996;-74
2022/06/14 00:29:24;;;;;;;;;;;10.40;99.90;;;;;;5033311;28;19924;-74
2022/06/14 00:31:51;;;;;;;;;;;10.40;99.90;;;;;;5033065;28;19916;-74
2022/06/14 00:34:18;;;;;;;;;;;10.50;99.90;;;;;;5033505;28;19920;-74
2022/06/14 00:36:50;;;;;;;;;;;10.70;99.90;;;;;;5033499;28;19909;-77
2022/06/14 00:39:17;;;;;;;;;;;10.80;99.90;;;;;;5033315;28;20007;-75
2022/06/14 00:41:48;;;;;;;;;;;10.90;99.90;;;;;;5033107;28;20348;-77
2022/06/14 00:44:19;;;;;;;;;;;11.00;99.90;;;;;;5033288;28;19913;-77
2022/06/14 00:47:04;;;;;;;;;;;11.10;99.90;;;;;;5033409;28;19944;-77
2022/06/14 00:49:51;;;;;;;;;;;11.10;99.90;;;;;;5015105;28;20375;-77
2022/06/14 00:52:23;;;;;;;;;;;11.10;99.90;;;;;;5032876;28;19936;-76
2022/06/14 00:54:52;;;;;;;;;;;11.10;99.90;;;;;;5033158;28;19920;-76
2022/06/14 00:57:27;;;;;;;;;;;11.20;99.90;;;;;;5033110;28;19909;-77
2022/06/14 00:59:57;;;;;;;;;;;11.30;99.90;;;;;;5032712;28;19998;-76
2022/06/14 01:02:31;;;;;;;;;;;11.40;99.90;;;;;;5033957;28;19913;-76
2022/06/14 01:05:08;;;;;;;;;;;11.50;99.90;;;;;;5037542;28;20003;-76
2022/06/14 01:07:44;;;;;;;;;;;11.90;99.90;;;;;;5039491;28;19909;-77
2022/06/14 01:10:29;;;;;;;;;;;12.20;99.90;;;;;;5038836;28;20326;-78
2022/06/14 01:13:02;;;;;;;;;;;12.50;99.90;;;;;;5037361;28;20344;-78
2022/06/14 01:15:30;;;;;;;;;;;12.60;99.90;;;;;;5037156;28;19909;-78
2022/06/14 01:18:08;;;;;;;;;;;12.80;99.90;;;;;;5036988;28;19995;-77
2022/06/14 01:20:35;;;;;;;;;;;12.90;99.90;;;;;;5036918;28;19909;-76
2022/06/14 01:23:02;;;;;;;;;;;12.90;99.90;;;;;;5036953;28;20007;-76
2022/06/14 01:25:30;;;;;;;;;;;12.90;99.90;;;;;;5037044;28;19909;-76
2022/06/14 01:27:58;;;;;;;;;;;12.80;99.90;;;;;;5036649;28;20269;-77
2022/06/14 01:30:30;;;;;;;;;;;12.90;99.90;;;;;;5019045;28;20287;-77
2022/06/14 01:33:07;;;;;;;;;;;12.80;99.90;;;;;;5036691;28;19956;-76
2022/06/14 01:35:35;;;;;;;;;;;12.70;99.90;;;;;;5036625;28;19913;-76
2022/06/14 01:38:05;;;;;;;;;;;12.70;99.90;;;;;;5036653;28;19914;-77
2022/06/14 01:40:46;;;;;;;;;;;12.70;99.90;;;;;;5036570;28;19909;-77
2022/06/14 01:43:12;;;;;;;;;;;12.60;99.90;;;;;;5038141;28;20334;-77
2022/06/14 01:45:39;;;;;;;;;;;12.60;99.90;;;;;;5036418;28;19909;-76
2022/06/14 01:48:24;;;;;;;;;;;12.60;99.90;;;;;;5036529;28;19917;-76
2022/06/14 01:53:47;;;;;;;;;;;12.70;99.90;;;;;;5035943;28;19929;-78
2022/06/14 01:56:20;;;;;;;;;;;12.70;99.90;;;;;;5036450;28;19917;-77
2022/06/14 01:58:52;;;;;;;;;;;12.70;99.90;;;;;;5035047;28;20352;-77
2022/06/14 02:01:26;;;;;;;;;;;12.70;99.90;;;;;;5036211;28;19948;-77
2022/06/14 02:07:15;;;;;;;;;;;12.90;99.90;;;;;;5036190;28;19932;-76
2022/06/14 02:09:45;;;;;;;;;;;13.00;99.90;;;;;;5035879;28;19924;-76
2022/06/14 02:12:13;;;;;;;;;;;13.20;99.90;;;;;;5036247;28;19915;-76
2022/06/14 02:14:43;;;;;;;;;;;13.30;99.90;;;;;;5035193;28;19913;-78
2022/06/14 02:17:12;;;;;;;;;;;13.20;99.90;;;;;;5035912;28;19914;-78
2022/06/14 02:19:41;;;;;;;;;;;13.30;99.90;;;;;;5035424;28;19909;-78
2022/06/14 02:22:11;;;;;;;;;;;13.30;99.90;;;;;;5035826;28;19987;-77
2022/06/14 02:24:41;;;;;;;;;;;13.20;99.90;;;;;;5034542;28;19919;-77
2022/06/14 02:27:25;;;;;;;;;;;13.10;99.90;;;;;;5035839;28;19909;-79
2022/06/14 02:30:07;;;;;;;;;;;13.10;99.90;;;;;;5035383;28;19924;-77
2022/06/14 02:32:36;;;;;;;;;;;13.20;99.90;;;;;;5035366;28;19909;-78
2022/06/14 02:35:07;;;;;;;;;;;13.20;99.90;;;;;;5035537;28;19996;-78
2022/06/14 02:37:40;;;;;;;;;;;13.30;99.90;;;;;;5035409;28;19909;-78
2022/06/14 02:40:10;;;;;;;;;;;13.30;99.90;;;;;;5035527;28;19917;-79
2022/06/14 02:42:41;;;;;;;;;;;13.40;99.90;;;;;;5035752;28;19945;-79
2022/06/14 02:45:28;;;;;;;;;;;13.40;99.90;;;;;;5035505;28;19956;-75
2022/06/14 02:48:05;;;;;;;;;;;13.50;99.90;;;;;;5017132;28;20330;-77
2022/06/14 02:50:35;;;;;;;;;;;13.50;99.90;;;;;;5035158;28;19913;-76
2022/06/14 02:53:11;;;;;;;;;;;13.60;99.90;;;;;;5035162;28;19964;-74
2022/06/14 02:55:39;;;;;;;;;;;13.60;99.90;;;;;;5035080;28;19999;-77
2022/06/14 02:58:14;;;;;;;;;;;13.60;99.90;;;;;;5035157;28;19916;-74
2022/06/14 03:00:53;;;;;;;;;;;13.60;99.90;;;;;;5035159;28;20000;-77
2022/06/14 03:03:40;;;;;;;;;;;13.70;99.90;;;;;;5017111;28;19913;-77
2022/06/14 03:06:13;;;;;;;;;;;13.80;99.90;;;;;;5034853;28;19909;-76
2022/06/14 03:08:47;;;;;;;;;;;14.00;99.90;;;;;;5034871;28;19921;-76
2022/06/14 03:11:25;;;;;;;;;;;14.00;99.90;;;;;;5034972;28;20031;-76
2022/06/14 03:13:55;;;;;;;;;;;14.40;99.90;;;;;;5034577;28;19910;-74
2022/06/14 03:16:25;;;;;;;;;;;14.70;99.90;;;;;;5034647;28;19916;-77
2022/06/14 03:18:56;;;;;;;;;;;14.80;99.90;;;;;;5034609;28;19909;-76
2022/06/14 03:21:35;;;;;;;;;;;14.80;99.90;;;;;;5034896;28;19909;-76
2022/06/14 03:24:09;;;;;;;;;;;14.90;99.90;;;;;;5034667;28;19909;-76
2022/06/14 03:26:51;;;;;;;;;;;15.10;99.90;;;;;;5034513;28;19955;-76
2022/06/14 03:29:27;;;;;;;;;;;15.20;99.90;;;;;;5033106;28;20322;-76
2022/06/14 03:32:08;;;;;;;;;;;15.10;99.90;;;;;;5034550;28;19955;-77
2022/06/14 03:34:55;;;;;;;;;;;15.10;99.90;;;;;;5034371;28;20401;-75
2022/06/14 03:37:22;;;;;;;;;;;15.00;99.90;;;;;;5034528;28;20012;-77
2022/06/14 03:39:54;;;;;;;;;;;15.00;99.90;;;;;;5034225;28;19916;-77
2022/06/14 03:42:21;;;;;;;;;;;15.10;99.90;;;;;;5034377;28;20423;-77
2022/06/14 03:44:49;;;;;;;;;;;15.00;99.90;;;;;;5034221;28;19915;-76
2022/06/14 03:47:26;;;;;;;;;;;15.00;99.90;;;;;;5034137;28;19909;-75
2022/06/14 03:49:56;;;;;;;;;;;14.90;99.90;;;;;;5034079;28;20027;-75
2022/06/14 03:52:37;;;;;;;;;;;14.80;99.90;;;;;;5033994;28;20291;-77
2022/06/14 03:55:06;;;;;;;;;;;14.80;99.90;;;;;;5034130;28;20352;-75
2022/06/14 03:57:51;;;;;;;;;;;14.70;99.90;;;;;;5033887;28;20434;-75
2022/06/14 04:00:18;;;;;;;;;;;14.90;99.90;;;;;;5033978;28;19995;-77
2022/06/14 04:03:03;;;;;;;;;;;14.90;99.90;;;;;;5034028;28;19920;-76
2022/06/14 04:05:36;;;;;;;;;;;14.90;99.90;;;;;;5033820;28;19909;-74
2022/06/14 04:08:09;;;;;;;;;;;14.80;99.90;;;;;;5033988;28;19914;-74
2022/06/14 04:10:42;;;;;;;;;;;15.00;99.90;;;;;;5033852;28;20290;-76
2022/06/14 04:13:28;;;;;;;;;;;15.00;99.90;;;;;;5033721;28;20387;-76
2022/06/14 04:15:58;;;;;;;;;;;14.80;99.90;;;;;;5033787;28;19909;-75
2022/06/14 04:18:43;;;;;;;;;;;14.90;99.90;;;;;;5033387;28;19971;-75
2022/06/14 04:21:10;;;;;;;;;;;14.90;99.90;;;;;;5033628;28;19996;-75
2022/06/14 04:23:54;;;;;;;;;;;15.00;99.90;;;;;;5033266;28;19915;-74
2022/06/14 04:26:33;;;;;;;;;;;15.10;99.90;;;;;;5033547;28;19909;-75
2022/06/14 04:29:23;;;;;;;;;;;15.10;99.90;;;;;;5033404;28;19973;-76
2022/06/14 04:31:57;;;;;;;;;;;14.90;99.90;;;;;;5030161;28;19920;-78
2022/06/14 04:34:44;;;;;;;;;;;14.80;99.90;;;;;;5033327;28;19916;-77
2022/06/14 04:37:23;;;;;;;;;;;14.80;99.90;;;;;;5028968;28;19916;-77
2022/06/14 04:39:56;;;;;;;;;;;14.90;99.90;;;;;;5033069;28;19917;-76
2022/06/14 04:42:25;;;;;;;;;;;15.00;99.90;;;;;;5033440;28;19909;-76
2022/06/14 04:44:57;;;;;;;;;;;15.00;99.90;;;;;;5033446;28;20275;-77
2022/06/14 04:47:28;;;;;;;;;;;15.00;99.90;;;;;;5033422;28;19910;-77
2022/06/14 04:50:02;;;;;;;;;;;15.00;99.90;;;;;;5033100;28;19917;-77
2022/06/14 04:52:32;;;;;;;;;;;15.10;99.90;;;;;;5032959;28;19917;-74
2022/06/14 04:54:58;;;;;;;;;;;15.10;99.90;;;;;;5033307;28;19916;-77
2022/06/14 04:57:28;;;;;;;;;;;15.10;99.90;;;;;;5033234;28;20375;-77
2022/06/14 05:00:15;;;;;;;;;;;15.20;99.90;;;;;;5033039;28;20426;-77
2022/06/14 05:02:44;;;;;;;;;;;15.10;99.90;;;;;;5032942;28;19915;-75
2022/06/14 05:05:15;;;;;;;;;;;15.00;99.90;;;;;;5033020;28;19916;-76
2022/06/14 05:07:44;;;;;;;;;;;15.10;99.90;;;;;;5032697;28;19949;-76
2022/06/14 05:10:16;;;;;;;;;;;14.90;99.90;;;;;;5032693;28;20253;-77
2022/06/14 05:12:50;;;;;;;;;;;14.80;99.90;;;;;;5033024;28;20311;-78
2022/06/14 05:15:26;;;;;;;;;;;14.80;99.90;;;;;;5032921;28;20016;-75
2022/06/14 05:18:05;;;;;;;;;;;14.80;99.90;;;;;;5032435;28;20364;-78
2022/06/14 05:20:44;;;;;;;;;;;14.70;99.90;;;;;;5032740;28;19916;-78
2022/06/14 05:23:17;;;;;;;;;;;14.60;99.90;;;;;;5033011;28;19916;-74
2022/06/14 05:25:49;;;;;;;;;;;14.70;99.90;;;;;;5032760;28;19913;-76
2022/06/14 05:28:20;;;;;;;;;;;14.70;99.90;;;;;;5032647;28;20003;-75
2022/06/14 05:30:51;;;;;;;;;;;14.70;99.90;;;;;;5033055;28;19936;-76
2022/06/14 05:33:24;;;;;;;;;;;14.70;99.90;;;;;;5032597;28;19913;-76
2022/06/14 05:35:57;;;;;;;;;;;14.70;99.90;;;;;;5032557;28;19909;-76
2022/06/14 05:38:39;;;;;;;;;;;14.60;99.90;;;;;;5032788;28;19945;-76
2022/06/14 05:41:07;;;;;;;;;;;14.50;99.90;;;;;;5032330;28;20366;-76
2022/06/14 05:43:45;;;;;;;;;;;14.50;99.90;;;;;;5032194;28;19909;-76
2022/06/14 05:46:18;;;;;;;;;;;14.40;99.90;;;;;;5032696;28;19981;-74
2022/06/14 05:48:52;;;;;;;;;;;14.50;99.90;;;;;;5032381;28;19918;-77
2022/06/14 05:51:26;;;;;;;;;;;14.40;99.90;;;;;;5036212;28;19913;-75
2022/06/14 05:54:04;;;;;;;;;;;14.40;99.90;;;;;;5035921;28;19925;-75
2022/06/14 05:56:34;;;;;;;;;;;14.50;99.90;;;;;;5036282;28;19940;-76
2022/06/14 05:59:01;;;;;;;;;;;14.40;99.90;;;;;;5036125;28;19909;-75
2022/06/14 06:01:30;;;;;;;;;;;14.30;99.90;;;;;;5036352;28;19909;-76
2022/06/14 06:04:10;;;;;;;;;;;14.30;99.90;;;;;;5036049;28;19963;-76
2022/06/14 06:06:43;;;;;;;;;;;14.30;99.90;;;;;;5036081;28;19909;-76
2022/06/14 06:09:13;;;;;;;;;;;14.10;99.90;;;;;;5036133;28;19928;-76
2022/06/14 06:11:49;;;;;;;;;;;14.20;99.90;;;;;;5035575;28;19970;-76
2022/06/14 06:14:19;;;;;;;;;;;14.20;99.90;;;;;;5018284;28;20316;-77
2022/06/14 06:19:27;;;;;;;;;;;14.00;99.90;;;;;;5035773;28;19962;-75
2022/06/14 06:21:54;;;;;;;;;;;13.90;99.90;;;;;;5035676;28;19909;-76
2022/06/14 06:24:34;;;;;;;;;;;14.00;99.90;;;;;;5035827;28;20371;-77
2022/06/14 06:27:10;;;;;;;;;;;13.90;99.90;;;;;;5035708;28;19917;-77
2022/06/14 06:29:41;;;;;;;;;;;13.80;99.90;;;;;;5035540;28;20323;-77
2022/06/14 06:32:08;;;;;;;;;;;13.80;99.90;;;;;;5035580;28;19909;-77
2022/06/14 06:34:35;;;;;;;;;;;13.70;99.90;;;;;;5035521;28;19962;-76
2022/06/14 06:37:01;;;;;;;;;;;13.70;99.90;;;;;;5035680;28;19909;-76
2022/06/14 06:39:32;;;;;;;;;;;13.70;99.90;;;;;;5035572;28;19909;-77
2022/06/14 06:42:24;;;;;;;;;;;13.60;99.90;;;;;;5035517;28;19909;-77
2022/06/14 06:45:10;;;;;;;;;;;13.50;99.90;;;;;;5034076;28;19932;-77
2022/06/14 06:47:44;;;;;;;;;;;13.40;99.90;;;;;;5034979;28;20386;-77
2022/06/14 06:50:20;;;;;;;;;;;13.30;99.90;;;;;;5035340;28;19909;-78
2022/06/14 06:52:50;;;;;;;;;;;13.30;99.90;;;;;;5032354;28;19917;-76
2022/06/14 06:55:39;;;;;;;;;;;13.20;99.90;;;;;;5033103;28;19978;-76
2022/06/14 06:58:18;;;;;;;;;;;13.10;99.90;;;;;;5030633;28;20291;-77
2022/06/14 07:00:45;;;;;;;;;;;13.00;99.90;;;;;;5032694;28;20363;-77
2022/06/14 07:03:19;;;;;;;;;;;12.90;99.90;;;;;;5033131;28;19913;-77
2022/06/14 07:05:51;;;;;;;;;;;12.80;99.90;;;;;;5032460;28;19974;-76
2022/06/14 07:08:20;;;;;;;;;;;12.80;99.90;;;;;;5032808;28;20368;-77
2022/06/14 07:10:51;;;;;;;;;;;12.70;99.90;;;;;;5032905;28;20276;-76
2022/06/14 07:13:30;;;;;;;;;;;12.70;99.90;;;;;;5032637;28;19913;-76
2022/06/14 07:16:09;;;;;;;;;;;12.70;99.90;;;;;;5032653;28;20277;-76
2022/06/14 07:18:38;;;;;;;;;;;12.60;99.90;;;;;;5032172;28;19909;-77
2022/06/14 07:21:23;;;;;;;;;;;12.60;99.90;;;;;;5032621;28;19916;-77
2022/06/14 07:23:50;;;;;;;;;;;12.50;99.90;;;;;;5032231;28;19917;-77
2022/06/14 07:26:20;;;;;;;;;;;12.50;99.90;;;;;;5032378;28;20009;-77
2022/06/14 07:28:46;;;;;;;;;;;12.40;99.90;;;;;;5032360;28;19925;-76
2022/06/14 07:31:18;;;;;;;;;;;12.40;99.90;;;;;;5031968;28;19909;-76
2022/06/14 07:33:45;;;;;;;;;;;12.30;99.90;;;;;;5032141;28;19909;-77
2022/06/14 07:36:32;;;;;;;;;;;12.30;99.90;;;;;;5032238;28;19909;-76
2022/06/14 07:39:06;;;;;;;;;;;12.30;99.90;;;;;;5031754;28;19909;-76
2022/06/14 07:41:53;;;;;;;;;;;12.30;99.90;;;;;;5032364;28;19910;-77
2022/06/14 07:44:23;;;;;;;;;;;12.30;99.90;;;;;;5020338;28;19966;-78
2022/06/14 07:46:59;;;;;;;;;;;12.20;99.90;;;;;;5032132;28;20317;-77
2022/06/14 07:49:28;;;;;;;;;;;12.20;99.90;;;;;;5032096;28;19921;-77
2022/06/14 07:52:00;;;;;;;;;;;12.20;99.90;;;;;;5031849;28;19966;-76
2022/06/14 07:54:33;;;;;;;;;;;12.10;99.90;;;;;;5031945;28;19909;-76
2022/06/14 07:57:08;;;;;;;;;;;12.10;99.90;;;;;;5031603;28;19909;-77
2022/06/14 07:59:40;;;;;;;;;;;12.00;99.90;;;;;;5031884;28;19909;-77
2022/06/14 08:02:22;;;;;;;;;;;12.00;99.90;;;;;;5031893;28;19913;-77
2022/06/14 08:04:54;;;;;;;;;;;12.00;99.90;;;;;;5030483;28;19909;-78
2022/06/14 08:07:21;;;;;;;;;;;12.00;99.90;;;;;;5031814;28;19921;-78
2022/06/14 08:09:59;;;;;;;;;;;12.00;99.90;;;;;;5030900;28;20352;-78
2022/06/14 08:12:37;;;;;;;;;;;12.00;99.90;;;;;;5030923;28;19920;-77
2022/06/14 08:15:07;;;;;;;;;;;12.00;99.90;;;;;;5031701;28;19914;-77
2022/06/14 08:17:45;;;;;;;;;;;12.00;99.90;;;;;;5046808;28;20430;-77
2022/06/14 08:20:26;;;;;;;;;;;12.00;99.90;;;;;;5031553;28;19917;-77
2022/06/14 08:23:03;;;;;;;;;;;12.00;99.90;;;;;;5031073;28;20356;-77
2022/06/14 08:25:33;;;;;;;;;;;12.00;99.90;;;;;;5031306;28;19959;-75
2022/06/14 08:28:20;;;;;;;;;;;12.00;99.90;;;;;;5031418;28;19921;-75
2022/06/14 08:30:56;;;;;;;;;;;11.90;99.90;;;;;;5031326;28;19913;-77
2022/06/14 08:33:32;;;;;;;;;;;11.90;99.90;;;;;;5031043;28;19913;-77
2022/06/14 08:36:02;;;;;;;;;;;11.90;99.90;;;;;;5030847;28;19928;-77
2022/06/14 08:38:31;;;;;;;;;;;11.90;99.90;;;;;;5031277;28;19919;-77
2022/06/14 08:41:01;;;;;;;;;;;11.90;99.90;;;;;;5031212;28;19918;-77
2022/06/14 08:43:37;;;;;;;;;;;11.90;99.90;;;;;;5031114;28;20382;-76
2022/06/14 08:46:22;;;;;;;;;;;11.90;99.90;;;;;;5030996;28;20319;-75
2022/06/14 08:48:49;;;;;;;;;;;12.00;99.90;;;;;;5030559;28;20423;-76
2022/06/14 08:51:28;;;;;;;;;;;12.10;99.90;;;;;;5031070;28;19913;-77
2022/06/14 08:54:13;;;;;;;;;;;12.00;99.90;;;;;;5030815;28;20189;-76
2022/06/14 08:56:46;;;;;;;;;;;12.10;99.90;;;;;;5031277;28;20280;-77
2022/06/14 08:59:29;;;;;;;;;;;12.00;99.90;;;;;;5031043;28;19916;-77
2022/06/14 09:02:14;;;;;;;;;;;12.10;99.90;;;;;;5030552;28;19913;-76
2022/06/14 09:04:41;;;;;;;;;;;12.00;99.90;;;;;;5030780;28;19909;-77
2022/06/14 09:07:25;;;;;;;;;;;11.90;99.90;;;;;;5032878;28;19909;-75
2022/06/14 09:10:10;;;;;;;;;;;11.90;99.90;;;;;;5032807;28;19979;-76
2022/06/14 09:12:53;;;;;;;;;;;11.90;99.90;;;;;;5032903;28;19909;-77
2022/06/14 09:15:26;;;;;;;;;;;11.90;99.90;;;;;;5032943;28;20237;-76
2022/06/14 09:17:55;;;;;;;;;;;11.90;99.90;;;;;;5032457;28;20039;-76
2022/06/14 09:20:28;;;;;;;;;;;11.90;99.90;;;;;;5032782;28;20268;-76
2022/06/14 09:22:58;;;;;;;;;;;11.90;99.90;;;;;;5020593;28;19979;-77
2022/06/14 09:25:40;;;;;;;;;;;11.90;99.90;;;;;;4997492;28;19945;-76
2022/06/14 09:28:22;;;;;;;;;;;11.90;99.90;;;;;;4996920;28;20392;-73
2022/06/14 09:31:11;;;;;;;;;;;11.90;99.90;;;;;;4997348;28;20040;-73
2022/06/14 09:34:03;;;;;;;;;;;11.90;99.90;;;;;;4978089;28;19910;-74
2022/06/14 09:36:30;;;;;;;;;;;11.80;99.90;;;;;;4997515;28;19953;-73
2022/06/14 09:38:56;;;;;;;;;;;11.80;99.90;;;;;;4997436;28;19913;-73
2022/06/14 09:41:46;;;;;;;;;;;11.80;99.90;;;;;;4997690;28;20043;-73
2022/06/14 09:44:16;;;;;;;;;;;11.80;99.90;;;;;;4991350;28;20000;-74
2022/06/14 09:47:01;;;;;;;;;;;11.80;99.90;;;;;;4996958;28;19916;-73
2022/06/14 09:49:28;;;;;;;;;;;11.80;99.90;;;;;;4996943;28;20276;-74
2022/06/14 09:52:06;;;;;;;;;;;11.80;99.90;;;;;;4996548;28;19925;-73
2022/06/14 09:54:53;;;;;;;;;;;11.80;99.90;;;;;;4996974;28;19918;-74
2022/06/14 09:57:30;;;;;;;;;;;11.70;99.90;;;;;;4997127;28;19913;-76
2022/06/14 10:00:00;;;;;;;;;;;11.70;99.90;;;;;;4996527;28;19914;-76
2022/06/14 10:02:36;;;;;;;;;;;11.70;99.90;;;;;;4996828;28;19910;-76
2022/06/14 10:05:06;;;;;;;;;;;11.70;99.90;;;;;;4995450;28;21491;-77
2022/06/14 10:07:35;;;;;;;;;;;11.60;99.90;;;;;;4996442;28;20376;-76
2022/06/14 10:10:11;;;;;;;;;;;11.60;99.90;;;;;;4996342;28;20322;-73
2022/06/14 10:12:58;;;;;;;;;;;11.60;99.90;;;;;;4996055;28;19941;-77
2022/06/14 10:15:40;;;;;;;;;;;11.50;99.90;;;;;;4996431;28;20443;-75
2022/06/14 10:18:25;;;;;;;;;;;11.50;99.90;;;;;;5016000;28;19925;-76
2022/06/14 10:21:11;;;;;;;;;;;11.50;99.90;;;;;;5016128;28;19910;-76
2022/06/14 10:23:58;;;;;;;;;;;11.40;99.90;;;;;;5015669;28;19953;-77
2022/06/14 10:29:25;;;;;;;;;;;11.40;99.90;;;;;;5013681;28;20283;-76
2022/06/14 10:31:53;;;;;;;;;;;11.40;99.90;;;;;;5013517;28;19971;-76
2022/06/14 10:34:20;;;;;;;;;;;11.30;99.90;;;;;;5013974;28;19940;-74
2022/06/14 10:37:25;;;;;;;;;;;11.30;99.90;;;;;;5013198;28;20004;-77
2022/06/14 10:39:55;;;;;;;;;;;11.40;99.90;;;;;;5010896;28;19957;-74
2022/06/14 10:42:40;;;;;;;;;;;11.60;99.90;;;;;;5010852;28;19948;-75
2022/06/14 10:45:07;;;;;;;;;;;11.60;99.90;;;;;;5012709;28;19946;-77
2022/06/14 10:47:33;;;;;;;;;;;11.70;99.90;;;;;;5013279;28;19981;-74
2022/06/14 10:50:09;;;;;;;;;;;11.70;99.90;;;;;;5013593;28;19921;-76
2022/06/14 10:52:41;;;;;;;;;;;11.80;99.90;;;;;;5013314;28;19918;-75
2022/06/14 10:55:17;;;;;;;;;;;11.80;99.90;;;;;;5013185;28;20375;-77
2022/06/14 10:58:09;;;;;;;;;;;11.80;99.90;;;;;;5013488;28;19944;-75
2022/06/14 11:00:35;;;;;;;;;;;11.80;99.90;;;;;;5013532;28;19910;-76
2022/06/14 11:03:23;;;;;;;;;;;11.90;99.90;;;;;;5013236;28;19915;-73
2022/06/14 11:05:49;;;;;;;;;;;11.90;99.90;;;;;;5013004;28;19924;-77
2022/06/14 11:08:28;;;;;;;;;;;11.90;99.90;;;;;;5012789;28;19978;-76
2022/06/14 11:11:17;;;;;;;;;;;11.80;99.90;;;;;;5013227;28;19913;-74
2022/06/14 11:14:02;;;;;;;;;;;11.80;99.90;;;;;;5013485;28;19913;-77
2022/06/14 11:16:39;;;;;;;;;;;11.80;99.90;;;;;;5013039;28;19940;-76
2022/06/14 11:22:08;;;;;;;;;;;11.80;99.90;;;;;;5012020;28;19914;-79
2022/06/14 11:24:40;;;;;;;;;;;11.90;99.90;;;;;;5012852;28;19988;-75
2022/06/14 11:27:09;;;;;;;;;;;11.80;99.90;;;;;;5012906;28;19909;-76
2022/06/14 11:29:48;;;;;;;;;;;11.80;99.90;;;;;;5012521;28;19918;-76
2022/06/14 11:32:22;;;;;;;;;;;11.70;99.90;;;;;;5012579;28;19909;-77
2022/06/14 11:34:52;;;;;;;;;;;11.60;99.90;;;;;;5011923;28;20357;-74
2022/06/14 11:37:27;;;;;;;;;;;11.60;99.90;;;;;;5012711;28;19913;-74
2022/06/14 11:40:03;;;;;;;;;;;11.50;99.90;;;;;;5012386;28;20281;-73
2022/06/14 11:42:36;;;;;;;;;;;11.50;99.90;;;;;;5012492;28;19920;-74
2022/06/14 11:45:02;;;;;;;;;;;11.50;99.90;;;;;;5012574;28;19976;-76
2022/06/14 11:47:58;;;;;;;;;;;11.40;99.90;;;;;;5011370;28;19937;-77
2022/06/14 11:50:24;;;;;;;;;;;11.50;99.90;;;;;;5007735;28;19918;-78
2022/06/14 11:53:03;;;;;;;;;;;11.40;99.90;;;;;;5014399;28;19999;-77
2022/06/14 11:55:29;;;;;;;;;;;11.40;99.90;;;;;;5014619;28;19910;-77
2022/06/14 11:58:16;;;;;;;;;;;11.40;99.90;;;;;;5014430;28;20356;-75
2022/06/14 12:00:49;;;;;;;;;;;11.50;99.90;;;;;;5014193;28;20275;-76
2022/06/14 12:03:34;;;;;;;;;;;11.50;99.90;;;;;;5011832;28;19913;-75
2022/06/14 12:06:02;;;;;;;;;;;11.50;99.90;;;;;;5043749;28;19967;-77
2022/06/14 12:08:47;;;;;;;;;;;11.60;99.90;;;;;;5012157;28;19941;-75
2022/06/14 12:11:21;;;;;;;;;;;11.70;99.90;;;;;;5012183;28;19916;-76
2022/06/14 12:14:05;;;;;;;;;;;11.70;99.90;;;;;;5011916;28;19960;-74
2022/06/14 12:16:37;;;;;;;;;;;11.60;99.90;;;;;;5043789;28;19909;-77
2022/06/14 12:19:14;;;;;;;;;;;11.50;99.90;;;;;;5011651;28;19914;-74
2022/06/14 12:21:58;;;;;;;;;;;11.50;99.90;;;;;;5011780;28;19913;-76
2022/06/14 12:26:34;;;;;;;;;;;11.40;99.90;;;;;;5011866;28;19916;-75
2022/06/14 12:27:18;;;;;;;;;;;11.40;99.90;;;;;;5011593;28;19914;-74
2022/06/14 12:29:47;;;;;;;;;;;11.40;99.90;;;;;;5011687;28;19921;-77
2022/06/14 12:32:18;;;;;;;;;;;11.30;99.90;;;;;;5011807;28;19913;-76
2022/06/14 12:34:47;;;;;;;;;;;11.30;99.90;;;;;;5011234;28;19917;-75
2022/06/14 12:37:32;;;;;;;;;;;11.30;99.90;;;;;;5011734;28;19909;-76
2022/06/14 12:40:25;;;;;;;;;;;11.30;99.90;;;;;;5011632;28;19956;-78
2022/06/14 12:43:10;;;;;;;;;;;11.20;99.90;;;;;;5010409;28;19920;-77
2022/06/14 12:45:42;;;;;;;;;;;11.10;99.90;;;;;;5011366;28;20474;-76
2022/06/14 12:48:09;;;;;;;;;;;11.10;99.90;;;;;;5011500;28;19968;-76
2022/06/14 12:50:47;;;;;;;;;;;11.20;99.90;;;;;;5011160;28;19916;-77
2022/06/14 12:53:28;;;;;;;;;;;11.20;99.90;;;;;;5011074;28;20399;-75
2022/06/14 12:55:57;;;;;;;;;;;11.30;99.90;;;;;;5011429;28;20017;-77
2022/06/14 12:58:48;;;;;;;;;;;11.40;99.90;;;;;;5011282;28;19910;-76
2022/06/14 13:01:17;;;;;;;;;;;11.50;99.90;;;;;;5011277;28;19960;-77
2022/06/14 13:03:48;;;;;;;;;;;11.50;99.90;;;;;;5010602;28;19909;-75
2022/06/14 13:06:30;;;;;;;;;;;11.60;99.90;;;;;;5010588;28;20323;-76
2022/06/14 13:09:15;;;;;;;;;;;11.60;99.90;;;;;;5011302;28;20005;-76
2022/06/14 13:11:53;;;;;;;;;;;11.50;99.90;;;;;;5011246;28;20424;-77
2022/06/14 13:14:23;;;;;;;;;;;11.50;99.90;;;;;;5011250;28;19976;-77
2022/06/14 13:16:59;;;;;;;;;;;11.50;99.90;;;;;;5011281;28;19921;-77
2022/06/14 13:19:35;;;;;;;;;;;11.50;99.90;;;;;;5010356;28;20304;-77
2022/06/14 13:22:04;;;;;;;;;;;11.50;99.90;;;;;;5020774;28;19917;-78
2022/06/14 13:24:37;;;;;;;;;;;11.50;99.90;;;;;;5011493;28;19913;-77
2022/06/14 13:27:22;;;;;;;;;;;11.60;99.90;;;;;;5011372;28;19917;-77
2022/06/14 13:30:01;;;;;;;;;;;11.60;99.90;;;;;;5011095;28;19953;-75
2022/06/14 13:33:07;;;;;;;;;;;11.70;99.90;;;;;;5010855;28;19909;-78
2022/06/14 13:35:39;;;;;;;;;;;11.70;99.90;;;;;;5028237;28;19932;-77
2022/06/14 13:38:11;;;;;;;;;;;11.70;99.90;;;;;;5028610;28;20462;-76
2022/06/14 13:40:50;;;;;;;;;;;11.70;99.90;;;;;;5018658;28;19913;-77
2022/06/14 13:43:36;;;;;;;;;;;11.70;99.90;;;;;;5011336;28;19917;-76
2022/06/14 13:46:05;;;;;;;;;;;11.70;99.90;;;;;;5010754;28;19939;-76
2022/06/14 13:48:32;;;;;;;;;;;11.60;99.90;;;;;;5011159;28;20012;-77
2022/06/14 13:51:08;;;;;;;;;;;11.60;99.90;;;;;;5011210;28;19971;-76
2022/06/14 13:53:38;;;;;;;;;;;11.60;99.90;;;;;;5010838;28;19933;-76
2022/06/14 13:56:07;;;;;;;;;;;11.60;99.90;;;;;;5011000;28;19940;-77
2022/06/14 13:58:41;;;;;;;;;;;11.50;99.90;;;;;;5010649;28;19956;-76
2022/06/14 14:01:25;;;;;;;;;;;11.50;99.90;;;;;;5011006;28;19914;-75
2022/06/14 14:03:58;;;;;;;;;;;11.50;99.90;;;;;;5010809;28;19952;-75
2022/06/14 14:06:48;;;;;;;;;;;11.50;99.90;;;;;;5011094;28;19910;-76
2022/06/14 14:09:21;;;;;;;;;;;11.50;99.90;;;;;;5013051;28;20564;-76
2022/06/14 14:11:51;;;;;;;;;;;11.50;99.90;;;;;;5013135;28;19948;-77
2022/06/14 14:14:36;;;;;;;;;;;11.60;99.90;;;;;;5014451;28;19916;-75
2022/06/14 14:17:06;;;;;;;;;;;11.50;99.90;;;;;;5014254;28;19910;-76
2022/06/14 14:19:52;;;;;;;;;;;11.60;99.90;;;;;;5014335;28;19920;-76
2022/06/14 14:22:29;;;;;;;;;;;11.60;99.90;;;;;;5014417;28;19909;-76
2022/06/14 14:24:55;;;;;;;;;;;11.60;99.90;;;;;;5014062;28;19955;-76
2022/06/14 14:27:37;;;;;;;;;;;11.60;99.90;;;;;;5014145;28;19910;-77
2022/06/14 14:30:04;;;;;;;;;;;11.60;99.90;;;;;;5013882;28;19999;-76
2022/06/14 14:32:34;;;;;;;;;;;11.60;99.90;;;;;;5014087;28;19917;-77
2022/06/14 14:35:16;;;;;;;;;;;11.70;99.90;;;;;;5014072;28;19910;-77
2022/06/14 14:37:45;;;;;;;;;;;11.70;99.90;;;;;;5013505;28;20284;-76
2022/06/14 14:40:11;;;;;;;;;;;11.70;99.90;;;;;;5014348;28;19909;-77
2022/06/14 14:42:58;;;;;;;;;;;11.70;99.90;;;;;;5013922;28;19945;-76
2022/06/14 14:45:28;;;;;;;;;;;11.70;99.90;;;;;;5016444;28;19913;-77
2022/06/14 14:48:00;;;;;;;;;;;11.70;99.90;;;;;;5013567;28;20406;-77
2022/06/14 14:50:36;;;;;;;;;;;11.70;99.90;;;;;;5013786;28;20538;-77
2022/06/14 14:53:02;;;;;;;;;;;11.60;99.90;;;;;;5013375;28;19925;-75
2022/06/14 14:55:33;;;;;;;;;;;11.60;99.90;;;;;;5013693;28;19909;-76
2022/06/14 14:58:08;;;;;;;;;;;11.50;99.90;;;;;;5013674;28;20313;-76
2022/06/14 15:06:35;;;;;;;;;;;11.40;99.90;;;;;;5019403;28;19959;-76
2022/06/14 15:09:03;;;;;;;;;;;11.30;99.90;;;;;;5013300;28;20319;-77
2022/06/14 15:11:30;;;;;;;;;;;11.30;99.90;;;;;;5013147;28;20710;-72
2022/06/14 15:13:58;;;;;;;;;;;11.20;99.90;;;;;;5013279;28;19916;-77
2022/06/14 15:16:38;;;;;;;;;;;11.20;99.90;;;;;;5013180;28;19921;-77
2022/06/14 15:21:51;;;;;;;;;;;11.20;99.90;;;;;;5012967;28;20410;-78